Time;durP1;ratioP1;P1;durP2;ratioP2;P2;SDS_P1;SDS_P2;PMS_P1;PMS_P2;Temp;Humidity;BMP_temperature;BMP_pressure;BME280_temperature;BME280_humidity;BME280_pressure;Samples;Min_cycle;Max_cycle;Signal;HPM_P1;HPM_P2
2022/08/07 00:01:06;;;;;;;1999.90;999.90;;;18.40;72.20;;;;;;5014497;28;20038;-69
2022/08/07 00:03:32;;;;;;;1999.90;999.90;;;18.40;72.30;;;;;;5012985;28;20034;-74
2022/08/07 00:05:58;;;;;;;1999.90;999.90;;;18.30;72.50;;;;;;5014072;28;20063;-69
2022/08/07 00:08:24;;;;;;;1999.90;999.90;;;18.30;72.60;;;;;;5014192;28;20095;-74
2022/08/07 00:10:50;;;;;;;1999.90;999.90;;;18.30;72.60;;;;;;5014441;28;20057;-73
2022/08/07 00:13:17;;;;;;;1999.90;999.90;;;18.20;72.80;;;;;;5012847;28;20432;-74
2022/08/07 00:15:44;;;;;;;1999.90;999.90;;;18.10;72.80;;;;;;5014110;28;20072;-74
2022/08/07 00:18:09;;;;;;;1999.90;999.90;;;18.10;73.10;;;;;;5013755;28;20022;-70
2022/08/07 00:20:37;;;;;;;1999.90;999.90;;;18.10;73.30;;;;;;5013713;28;20497;-70
2022/08/07 00:23:05;;;;;;;1999.90;999.90;;;18.00;73.50;;;;;;5013635;28;20022;-74
2022/08/07 00:25:31;;;;;;;1999.90;999.90;;;18.00;73.30;;;;;;5013517;28;20025;-74
2022/08/07 00:27:56;;;;;;;1999.90;999.90;;;17.90;73.70;;;;;;5013346;28;20033;-69
2022/08/07 00:30:23;;;;;;;1999.90;999.90;;;17.90;73.60;;;;;;5013918;28;20018;-75
2022/08/07 00:32:49;;;;;;;1999.90;999.90;;;17.90;73.70;;;;;;5013910;28;20034;-74
2022/08/07 00:35:17;;;;;;;1999.90;999.90;;;17.90;73.80;;;;;;5013495;28;20037;-74
2022/08/07 00:37:43;;;;;;;1999.90;999.90;;;17.90;73.90;;;;;;5013798;28;20076;-69
2022/08/07 00:40:09;;;;;;;1999.90;999.90;;;17.90;74.00;;;;;;5013430;28;20037;-69
2022/08/07 00:42:35;;;;;;;1999.90;999.90;;;17.90;74.00;;;;;;5013495;28;20061;-74
2022/08/07 00:45:00;;;;;;;1999.90;999.90;;;17.90;74.00;;;;;;5013637;28;20410;-74
2022/08/07 00:47:26;;;;;;;1999.90;999.90;;;17.90;74.20;;;;;;5013514;28;20060;-74
2022/08/07 00:49:51;;;;;;;1999.90;999.90;;;17.90;74.20;;;;;;5013747;28;20022;-74
2022/08/07 00:52:17;;;;;;;1999.90;999.90;;;17.80;74.20;;;;;;5013178;28;20045;-70
2022/08/07 00:54:43;;;;;;;1999.90;999.90;;;17.80;74.60;;;;;;5013766;28;20030;-74
2022/08/07 00:57:09;;;;;;;1999.90;999.90;;;17.80;74.60;;;;;;5013338;28;20100;-69
2022/08/07 00:59:36;;;;;;;1999.90;999.90;;;17.70;74.50;;;;;;5013537;28;20097;-74
2022/08/07 01:02:07;;;;;;;1999.90;999.90;;;17.80;74.60;;;;;;5013487;28;20500;-69
2022/08/07 01:04:32;;;;;;;1999.90;999.90;;;17.80;74.70;;;;;;5013059;28;20026;-69
2022/08/07 01:06:58;;;;;;;1999.90;999.90;;;17.80;74.80;;;;;;5013400;28;20388;-69
2022/08/07 01:09:24;;;;;;;1999.90;999.90;;;17.70;74.60;;;;;;5013417;28;20050;-74
2022/08/07 01:11:51;;;;;;;1999.90;999.90;;;17.70;74.80;;;;;;5012996;28;20056;-74
2022/08/07 01:14:19;;;;;;;1999.90;999.90;;;17.70;75.00;;;;;;5012731;28;20030;-74
2022/08/07 01:16:44;;;;;;;1999.90;999.90;;;17.70;75.10;;;;;;5012584;28;20378;-69
2022/08/07 01:19:11;;;;;;;1999.90;999.90;;;17.60;75.10;;;;;;5013002;28;20033;-74
2022/08/07 01:21:36;;;;;;;1999.90;999.90;;;17.60;75.00;;;;;;5013126;28;20033;-70
2022/08/07 01:24:03;;;;;;;1999.90;999.90;;;17.60;75.20;;;;;;5012932;28;20029;-74
2022/08/07 01:26:29;;;;;;;1999.90;999.90;;;17.60;75.40;;;;;;5013077;28;20404;-74
2022/08/07 01:28:55;;;;;;;1999.90;999.90;;;17.60;75.40;;;;;;5013267;28;20378;-69
2022/08/07 01:31:26;;;;;;;1999.90;999.90;;;17.60;75.40;;;;;;5012782;28;20025;-74
2022/08/07 01:33:52;;;;;;;1999.90;999.90;;;17.60;75.40;;;;;;5013101;28;20080;-69
2022/08/07 01:36:19;;;;;;;1999.90;999.90;;;17.60;75.70;;;;;;5013005;28;20034;-74
2022/08/07 01:38:45;;;;;;;1999.90;999.90;;;17.60;75.60;;;;;;5013146;28;20030;-69
2022/08/07 01:41:12;;;;;;;1999.90;999.90;;;17.50;75.80;;;;;;5012964;28;20037;-74
2022/08/07 01:43:37;;;;;;;1999.90;999.90;;;17.40;76.10;;;;;;5012401;28;20037;-69
2022/08/07 01:46:04;;;;;;;1999.90;999.90;;;17.30;76.20;;;;;;5012988;28;20030;-74
2022/08/07 01:48:31;;;;;;;1999.90;999.90;;;17.30;76.40;;;;;;5012633;28;20066;-74
2022/08/07 01:51:02;;;;;;;1999.90;999.90;;;17.30;76.70;;;;;;5006689;28;20023;-74
2022/08/07 01:53:31;;;;;;;1999.90;999.90;;;17.20;76.80;;;;;;4997269;28;20077;-69
2022/08/07 01:56:11;;;;;;;1999.90;999.90;;;17.20;77.00;;;;;;4997110;28;20033;-70
2022/08/07 01:58:42;;;;;;;1999.90;999.90;;;17.20;77.10;;;;;;4997055;28;20074;-74
2022/08/07 02:01:12;;;;;;;1999.90;999.90;;;17.10;77.50;;;;;;4996973;28;20034;-73
2022/08/07 02:03:45;;;;;;;1999.90;999.90;;;17.10;77.30;;;;;;5006591;28;20120;-70
2022/08/07 02:06:13;;;;;;;;;;;17.10;77.30;;;;;;5016910;28;20026;-69
2022/08/07 02:08:40;;;;;;;1999.90;999.90;;;17.00;77.40;;;;;;5016667;28;19913;-74
2022/08/07 02:11:08;;;;;;;1999.90;999.90;;;17.00;77.70;;;;;;5016234;28;20033;-69
2022/08/07 02:13:36;;;;;;;1999.90;999.90;;;17.00;77.90;;;;;;5015583;28;20112;-74
2022/08/07 02:16:04;;;;;;;1999.90;999.90;;;16.90;78.00;;;;;;5016037;28;20041;-69
2022/08/07 02:18:33;;;;;;;1999.90;999.90;;;16.90;78.10;;;;;;5015892;28;20485;-69
2022/08/07 02:21:01;;;;;;;1999.90;999.90;;;16.90;78.40;;;;;;5016271;28;20026;-69
2022/08/07 02:23:29;;;;;;;1999.90;999.90;;;16.90;78.40;;;;;;5016050;28;20486;-74
2022/08/07 02:25:57;;;;;;;1999.90;999.90;;;16.90;78.60;;;;;;5016434;28;20057;-69
2022/08/07 02:28:26;;;;;;;1999.90;999.90;;;16.90;78.70;;;;;;5015878;28;20493;-74
2022/08/07 02:30:53;;;;;;;1999.90;999.90;;;16.90;78.90;;;;;;5015879;28;20071;-69
2022/08/07 02:33:19;;;;;;;1999.90;999.90;;;16.90;79.00;;;;;;5015938;28;20440;-69
2022/08/07 02:35:47;;;;;;;1999.90;999.90;;;16.90;79.30;;;;;;5015783;28;20034;-69
2022/08/07 02:38:14;;;;;;;1999.90;999.90;;;16.90;79.20;;;;;;5015287;28;20014;-74
2022/08/07 02:40:40;;;;;;;1999.90;999.90;;;16.90;79.40;;;;;;5015808;28;20034;-74
2022/08/07 02:43:07;;;;;;;1999.90;999.90;;;16.90;79.70;;;;;;5015523;28;20021;-74
2022/08/07 02:45:36;;;;;;;1999.90;999.90;;;16.80;79.70;;;;;;5015291;28;20022;-69
2022/08/07 02:48:01;;;;;;;1999.90;999.90;;;16.80;79.80;;;;;;5015826;28;20091;-69
2022/08/07 02:50:30;;;;;;;1999.90;999.90;;;16.80;80.10;;;;;;5012575;28;20477;-74
2022/08/07 02:53:03;;;;;;;1999.90;999.90;;;16.70;80.30;;;;;;4995919;28;20054;-74
2022/08/07 02:55:30;;;;;;;1999.90;999.90;;;16.70;80.60;;;;;;4996118;28;20088;-69
2022/08/07 02:58:06;;;;;;;1999.90;999.90;;;16.60;80.80;;;;;;4996110;28;20034;-69
2022/08/07 03:00:35;;;;;;;1999.90;999.90;;;16.60;81.10;;;;;;4995714;28;20081;-69
2022/08/07 03:03:04;;;;;;;1999.90;999.90;;;16.60;81.40;;;;;;5000237;28;20501;-74
2022/08/07 03:05:31;;;;;;;1999.90;999.90;;;16.60;81.70;;;;;;5015333;28;20108;-74
2022/08/07 03:07:58;;;;;;;1999.90;999.90;;;16.50;81.80;;;;;;5015482;28;20050;-74
2022/08/07 03:10:24;;;;;;;1999.90;999.90;;;16.50;81.90;;;;;;5015506;28;20022;-69
2022/08/07 03:12:50;;;;;;;1999.90;999.90;;;16.40;82.10;;;;;;5015173;28;20026;-70
2022/08/07 03:15:17;;;;;;;1999.90;999.90;;;16.40;82.60;;;;;;5014303;28;20064;-69
2022/08/07 03:17:43;;;;;;;1999.90;999.90;;;16.40;82.60;;;;;;5014935;28;20033;-74
2022/08/07 03:20:10;;;;;;;1999.90;999.90;;;16.30;82.80;;;;;;5015165;28;20029;-74
2022/08/07 03:22:39;;;;;;;1999.90;999.90;;;16.30;83.00;;;;;;5015038;28;20029;-70
2022/08/07 03:25:05;;;;;;;1999.90;999.90;;;16.30;83.40;;;;;;5015302;28;20026;-69
2022/08/07 03:27:31;;;;;;;1999.90;999.90;;;16.20;83.40;;;;;;5014926;28;20405;-69
2022/08/07 03:29:58;;;;;;;1999.90;999.90;;;16.20;83.70;;;;;;5014850;28;20393;-74
2022/08/07 03:32:32;;;;;;;1999.90;999.90;;;16.20;83.90;;;;;;5014824;28;20030;-69
2022/08/07 03:35:01;;;;;;;1999.90;999.90;;;16.20;84.10;;;;;;5014688;28;20037;-74
2022/08/07 03:37:30;;;;;;;1999.90;999.90;;;16.20;84.20;;;;;;5015047;28;20032;-69
2022/08/07 03:39:57;;;;;;;1999.90;999.90;;;16.20;84.30;;;;;;5014679;28;20044;-70
2022/08/07 03:42:24;;;;;;;1999.90;999.90;;;16.20;84.30;;;;;;5014392;28;20580;-74
2022/08/07 03:44:51;;;;;;;1999.90;999.90;;;16.20;84.20;;;;;;5014275;28;20557;-74
2022/08/07 03:47:17;;;;;;;1999.90;999.90;;;16.20;84.20;;;;;;5014452;28;20029;-69
2022/08/07 03:49:43;;;;;;;1999.90;999.90;;;16.20;84.30;;;;;;5014654;28;20440;-69
2022/08/07 03:52:10;;;;;;;1999.90;999.90;;;16.30;84.40;;;;;;4997514;28;20575;-69
2022/08/07 03:54:36;;;;;;;1999.90;999.90;;;16.20;84.30;;;;;;4994964;28;20081;-74
2022/08/07 03:57:03;;;;;;;1999.90;999.90;;;16.20;84.50;;;;;;4994720;28;20034;-74
2022/08/07 03:59:29;;;;;;;1999.90;999.90;;;16.30;84.60;;;;;;4994734;28;20031;-74
2022/08/07 04:01:55;;;;;;;1999.90;999.90;;;16.30;85.20;;;;;;4994780;28;20093;-74
2022/08/07 04:04:21;;;;;;;1999.90;999.90;;;16.30;84.70;;;;;;5010039;28;20026;-74
2022/08/07 04:06:47;;;;;;;1999.90;999.90;;;16.30;84.90;;;;;;5014380;28;20022;-74
2022/08/07 04:09:14;;;;;;;1999.90;999.90;;;16.20;85.30;;;;;;5014478;28;20385;-74
2022/08/07 04:11:40;;;;;;;1999.90;999.90;;;16.10;85.60;;;;;;5013733;28;20101;-74
2022/08/07 04:14:06;;;;;;;1999.90;999.90;;;15.90;85.70;;;;;;5013811;28;20022;-74
2022/08/07 04:16:32;;;;;;;1999.90;999.90;;;15.70;86.20;;;;;;5013386;28;20096;-69
2022/08/07 04:19:02;;;;;;;1999.90;999.90;;;15.50;86.80;;;;;;5013766;28;20148;-69
2022/08/07 04:21:28;;;;;;;1999.90;999.90;;;15.50;87.40;;;;;;5014086;28;20068;-74
2022/08/07 04:23:54;;;;;;;1999.90;999.90;;;15.40;87.60;;;;;;5013709;28;20069;-74
2022/08/07 04:26:20;;;;;;;1999.90;999.90;;;15.40;87.80;;;;;;5012295;28;20397;-70
2022/08/07 04:28:45;;;;;;;1999.90;999.90;;;15.30;88.00;;;;;;5013929;28;20029;-74
2022/08/07 04:31:11;;;;;;;1999.90;999.90;;;15.20;88.10;;;;;;5013994;28;20029;-69
2022/08/07 04:33:38;;;;;;;1999.90;999.90;;;15.20;88.40;;;;;;5013731;28;20032;-74
2022/08/07 04:36:07;;;;;;;1999.90;999.90;;;15.20;88.50;;;;;;5013599;28;20396;-70
2022/08/07 04:38:34;;;;;;;1999.90;999.90;;;15.10;88.60;;;;;;5013935;28;20022;-74
2022/08/07 04:41:00;;;;;;;1999.90;999.90;;;15.10;88.70;;;;;;5013672;28;20044;-74
2022/08/07 04:43:36;;;;;;;1999.90;999.90;;;15.10;88.80;;;;;;5013283;28;20124;-69
2022/08/07 04:46:07;;;;;;;1999.90;999.90;;;15.20;89.00;;;;;;5013940;28;20022;-74
2022/08/07 04:48:52;;;;;;;1999.90;999.90;;;15.20;89.10;;;;;;5013598;28;20153;-74
2022/08/07 04:51:26;;;;;;;1999.90;999.90;;;15.20;89.00;;;;;;5013492;28;20500;-69
2022/08/07 04:54:14;;;;;;;1999.90;999.90;;;15.30;88.80;;;;;;5013544;28;20021;-70
2022/08/07 04:56:50;;;;;;;1999.90;999.90;;;15.40;88.80;;;;;;5013028;28;20030;-69
2022/08/07 04:59:24;;;;;;;1999.90;999.90;;;15.40;88.50;;;;;;5013606;28;20072;-69
2022/08/07 05:02:38;;;;;;;1999.90;999.90;;;15.50;88.50;;;;;;5013029;28;20061;-70
2022/08/07 05:05:03;;;;;;;1999.90;999.90;;;15.60;88.40;;;;;;4957921;28;20036;-73
2022/08/07 05:07:42;;;;;;;1999.90;999.90;;;15.50;88.30;;;;;;4993721;28;20045;-69
2022/08/07 05:10:18;;;;;;;1999.90;999.90;;;15.60;88.20;;;;;;4994015;28;20033;-74
2022/08/07 05:12:57;;;;;;;1999.90;999.90;;;15.70;88.30;;;;;;4992596;28;20585;-74
2022/08/07 05:15:34;;;;;;;1999.90;999.90;;;15.80;88.10;;;;;;4993330;28;20393;-69
2022/08/07 05:18:04;;;;;;;1999.90;999.90;;;15.90;88.00;;;;;;4993398;28;20084;-74
2022/08/07 05:20:34;;;;;;;1999.90;999.90;;;15.90;87.80;;;;;;4993493;28;20077;-74
2022/08/07 05:23:05;;;;;;;1999.90;999.90;;;16.00;87.70;;;;;;4993269;28;20552;-70
2022/08/07 05:25:32;;;;;;;1999.90;999.90;;;16.10;87.60;;;;;;4993534;28;20037;-69
2022/08/07 05:27:59;;;;;;;1999.90;999.90;;;16.10;87.60;;;;;;5003889;28;20414;-74
2022/08/07 05:30:25;;;;;;;1999.90;999.90;;;16.10;87.60;;;;;;5017276;28;20014;-70
2022/08/07 05:32:53;;;;;;;1999.90;999.90;;;16.20;87.70;;;;;;5017131;28;20044;-74
2022/08/07 05:35:19;;;;;;;1999.90;999.90;;;16.20;87.50;;;;;;5016658;28;20022;-69
2022/08/07 05:37:46;;;;;;;1999.90;999.90;;;16.30;87.50;;;;;;5017191;28;20086;-69
2022/08/07 05:40:12;;;;;;;1999.90;999.90;;;16.30;87.40;;;;;;5016992;28;20036;-74
2022/08/07 05:42:38;;;;;;;1999.90;999.90;;;16.40;87.50;;;;;;5016678;28;20060;-74
2022/08/07 05:45:05;;;;;;;1999.90;999.90;;;16.40;87.30;;;;;;5016917;28;20489;-74
2022/08/07 05:47:32;;;;;;;1999.90;999.90;;;16.40;87.20;;;;;;5016753;28;20030;-69
2022/08/07 05:50:00;;;;;;;1999.90;999.90;;;16.50;87.20;;;;;;5016687;28;20026;-70
2022/08/07 05:52:26;;;;;;;1999.90;999.90;;;16.60;87.30;;;;;;5016591;28;20046;-74
2022/08/07 05:54:52;;;;;;;1999.90;999.90;;;16.60;87.10;;;;;;5016591;28;20093;-74
2022/08/07 05:57:19;;;;;;;1999.90;999.90;;;16.70;86.90;;;;;;5016527;28;20416;-74
2022/08/07 05:59:45;;;;;;;1999.90;999.90;;;16.80;87.00;;;;;;5016627;28;20033;-69
2022/08/07 06:02:15;;;;;;;1999.90;999.90;;;16.80;86.60;;;;;;5016676;28;20420;-69
2022/08/07 06:04:47;;;;;;;1999.90;999.90;;;16.90;86.50;;;;;;5016537;28;20022;-69
2022/08/07 06:07:14;;;;;;;1999.90;999.90;;;17.00;86.40;;;;;;5016745;28;20036;-74
2022/08/07 06:09:40;;;;;;;1999.90;999.90;;;17.00;86.80;;;;;;5016260;28;20030;-74
2022/08/07 06:12:06;;;;;;;1999.90;999.90;;;17.10;86.10;;;;;;5016199;28;20088;-74
2022/08/07 06:14:32;;;;;;;1999.90;999.90;;;17.20;86.20;;;;;;5016469;28;20473;-69
2022/08/07 06:16:59;;;;;;;1999.90;999.90;;;17.30;86.00;;;;;;5015670;28;20092;-74
2022/08/07 06:19:27;;;;;;;1999.90;999.90;;;17.40;85.90;;;;;;5015861;28;20109;-69
2022/08/07 06:21:53;;;;;;;1999.90;999.90;;;17.40;85.70;;;;;;5016232;28;20030;-74
2022/08/07 06:24:19;;;;;;;1999.90;999.90;;;17.50;85.50;;;;;;5016097;28;20034;-74
2022/08/07 06:26:44;;;;;;;1999.90;999.90;;;17.60;85.40;;;;;;5016271;28;20118;-70
2022/08/07 06:29:10;;;;;;;1999.90;999.90;;;17.70;85.30;;;;;;5015878;28;20029;-74
2022/08/07 06:31:36;;;;;;;1999.90;999.90;;;17.70;85.00;;;;;;5016183;28;20026;-69
2022/08/07 06:34:02;;;;;;;1999.90;999.90;;;17.80;85.00;;;;;;5015906;28;20030;-74
2022/08/07 06:36:29;;;;;;;1999.90;999.90;;;17.90;84.80;;;;;;5015518;28;20064;-74
2022/08/07 06:38:54;;;;;;;1999.90;999.90;;;18.00;84.70;;;;;;5016181;28;20048;-70
2022/08/07 06:41:29;;;;;;;1999.90;999.90;;;18.00;84.70;;;;;;5015632;28;20037;-69
2022/08/07 06:43:56;;;;;;;1999.90;999.90;;;18.20;84.40;;;;;;5015859;28;20500;-74
2022/08/07 06:46:23;;;;;;;1999.90;999.90;;;18.20;84.10;;;;;;5015968;28;20037;-74
2022/08/07 06:48:49;;;;;;;1999.90;999.90;;;18.30;83.80;;;;;;5015639;28;20056;-74
2022/08/07 06:51:23;;;;;;;1999.90;999.90;;;18.40;83.70;;;;;;5011413;28;20045;-74
2022/08/07 06:53:49;;;;;;;1999.90;999.90;;;18.50;83.50;;;;;;4996049;28;20041;-74
2022/08/07 06:56:16;;;;;;;1999.90;999.90;;;18.60;83.20;;;;;;4995833;28;20034;-73
2022/08/07 06:58:45;;;;;;;1999.90;999.90;;;18.60;83.30;;;;;;4996236;28;20045;-74
2022/08/07 07:01:12;;;;;;;1999.90;999.90;;;18.80;83.10;;;;;;4996013;28;20076;-74
2022/08/07 07:03:40;;;;;;;1999.90;999.90;;;18.90;82.90;;;;;;5005253;28;20525;-69
2022/08/07 07:06:09;;;;;;;1999.90;999.90;;;19.10;82.60;;;;;;5015384;28;20021;-69
2022/08/07 07:08:35;;;;;;;1999.90;999.90;;;19.10;82.40;;;;;;5015447;28;20080;-74
2022/08/07 07:11:03;;;;;;;1999.90;999.90;;;19.20;81.80;;;;;;5015136;28;20018;-74
2022/08/07 07:13:43;;;;;;;1999.90;999.90;;;19.30;81.50;;;;;;5014591;28;20080;-75
2022/08/07 07:16:14;;;;;;;1999.90;999.90;;;19.40;81.40;;;;;;5014338;28;20021;-74
2022/08/07 07:18:47;;;;;;;1999.90;999.90;;;19.50;81.20;;;;;;5014088;28;20034;-70
2022/08/07 07:21:25;;;;;;;1999.90;999.90;;;19.60;80.90;;;;;;5015265;28;20398;-69
2022/08/07 07:23:51;;;;;;;1999.90;999.90;;;19.70;81.00;;;;;;5014896;28;20045;-74
2022/08/07 07:26:21;;;;;;;1999.90;999.90;;;19.80;80.90;;;;;;5015273;28;20022;-70
2022/08/07 07:29:02;;;;;;;1999.90;999.90;;;20.00;80.60;;;;;;5015040;28;20436;-74
2022/08/07 07:31:38;;;;;;;1999.90;999.90;;;20.20;80.20;;;;;;5015115;28;20084;-69
2022/08/07 07:34:07;;;;;;;1999.90;999.90;;;20.20;79.80;;;;;;5014891;28;20030;-69
2022/08/07 07:36:35;;;;;;;1999.90;999.90;;;20.40;79.90;;;;;;5014968;28;20036;-69
2022/08/07 07:39:03;;;;;;;1999.90;999.90;;;20.50;79.60;;;;;;5015097;28;20104;-75
2022/08/07 07:41:29;;;;;;;1999.90;999.90;;;20.60;79.10;;;;;;5014532;28;20121;-69
2022/08/07 07:43:58;;;;;;;1999.90;999.90;;;20.80;78.80;;;;;;5014777;28;20018;-69
2022/08/07 07:46:26;;;;;;;1999.90;999.90;;;20.90;78.60;;;;;;5014941;28;20018;-69
2022/08/07 07:48:53;;;;;;;1999.90;999.90;;;21.00;78.10;;;;;;5013521;28;20018;-74
2022/08/07 07:51:21;;;;;;;1999.90;999.90;;;21.10;78.00;;;;;;5009615;28;20042;-74
2022/08/07 07:53:48;;;;;;;1999.90;999.90;;;21.50;78.00;;;;;;4994907;28;20034;-75
2022/08/07 07:56:16;;;;;;;1999.90;999.90;;;22.30;76.30;;;;;;4995041;28;20037;-75
2022/08/07 07:58:43;;;;;;;1999.90;999.90;;;25.00;72.00;;;;;;4995390;28;20031;-75
2022/08/07 08:01:10;;;;;;;1999.90;999.90;;;27.50;68.60;;;;;;4994848;28;20440;-70
2022/08/07 08:03:38;;;;;;;1999.90;999.90;;;28.70;66.50;;;;;;5003922;28;20033;-75
2022/08/07 08:06:06;;;;;;;1999.90;999.90;;;29.50;65.30;;;;;;5014534;28;20076;-75
2022/08/07 08:08:34;;;;;;;1999.90;999.90;;;30.20;64.70;;;;;;5014275;28;20105;-69
2022/08/07 08:11:01;;;;;;;1999.90;999.90;;;30.90;63.60;;;;;;5014331;28;20022;-70
2022/08/07 08:13:28;;;;;;;1999.90;999.90;;;31.00;63.40;;;;;;5014047;28;20048;-69
2022/08/07 08:15:57;;;;;;;1999.90;999.90;;;31.20;63.00;;;;;;5014197;28;20059;-75
2022/08/07 08:18:26;;;;;;;1999.90;999.90;;;31.50;62.90;;;;;;5012911;28;20057;-75
2022/08/07 08:20:52;;;;;;;1999.90;999.90;;;31.50;62.60;;;;;;5013906;28;20036;-70
2022/08/07 08:28:52;;;;;;;1999.90;999.90;;;32.90;61.90;;;;;;5013855;28;20065;-73
2022/08/07 08:31:23;;;;;;;1999.90;999.90;;;33.10;61.10;;;;;;5013326;28;20018;-73
2022/08/07 08:33:53;;;;;;;1999.90;999.90;;;33.00;61.10;;;;;;5013904;28;20037;-73
2022/08/07 08:36:22;;;;;;;1999.90;999.90;;;33.40;61.10;;;;;;5013833;28;20057;-73
2022/08/07 08:38:49;;;;;;;1999.90;999.90;;;33.70;60.70;;;;;;5013668;28;20481;-68
2022/08/07 08:41:42;;;;;;;1999.90;999.90;;;33.90;60.00;;;;;;5013679;28;20400;-73
2022/08/07 08:44:15;;;;;;;1999.90;999.90;;;33.50;60.00;;;;;;5013171;28;20072;-73
2022/08/07 08:46:43;;;;;;;1999.90;999.90;;;33.50;60.30;;;;;;5013633;28;20097;-74
2022/08/07 08:49:20;;;;;;;1999.90;999.90;;;34.10;59.80;;;;;;5013514;28;20030;-67
2022/08/07 08:52:17;;;;;;;1999.90;999.90;;;34.30;60.00;;;;;;5013371;28;20101;-68
2022/08/07 08:55:04;;;;;;;1999.90;999.90;;;34.60;60.00;;;;;;5013594;28;20026;-74
2022/08/07 08:57:38;;;;;;;1999.90;999.90;;;34.60;59.60;;;;;;5013350;28;20033;-73
2022/08/07 09:00:09;;;;;;;1999.90;999.90;;;34.70;59.20;;;;;;5013488;28;20032;-68
2022/08/07 09:02:38;;;;;;;1999.90;999.90;;;35.00;59.00;;;;;;5013303;28;20102;-74
2022/08/07 09:05:15;;;;;;;1999.90;999.90;;;35.00;58.80;;;;;;5013273;28;20036;-73
2022/08/07 09:07:48;;;;;;;1999.90;999.90;;;35.10;59.00;;;;;;5013573;28;20025;-74
2022/08/07 09:10:21;;;;;;;1999.90;999.90;;;34.80;59.30;;;;;;5013496;28;20958;-74
2022/08/07 09:13:13;;;;;;;1999.90;999.90;;;35.50;58.80;;;;;;5012802;28;20030;-73
2022/08/07 09:15:38;;;;;;;1999.90;999.90;;;34.90;58.70;;;;;;5013491;28;20040;-73
2022/08/07 09:18:22;;;;;;;1999.90;999.90;;;35.20;58.70;;;;;;5011893;28;20034;-74
2022/08/07 09:21:16;;;;;;;1999.90;999.90;;;35.40;58.70;;;;;;5013214;28;20034;-73
2022/08/07 09:24:00;;;;;;;1999.90;999.90;;;35.50;59.00;;;;;;5009902;28;20041;-73
2022/08/07 09:26:30;;;;;;;1999.90;999.90;;;35.60;58.80;;;;;;5012977;28;20025;-68
2022/08/07 09:29:09;;;;;;;1999.90;999.90;;;35.40;58.50;;;;;;5011588;28;20105;-73
2022/08/07 09:31:57;;;;;;;1999.90;999.90;;;35.40;58.70;;;;;;4993592;28;20045;-74
2022/08/07 09:34:46;;;;;;;1999.90;999.90;;;36.30;58.80;;;;;;4993446;28;20046;-74
2022/08/07 09:37:43;;;;;;;1999.90;999.90;;;35.40;58.50;;;;;;4992002;28;20462;-74
2022/08/07 09:40:46;;;;;;;1999.90;999.90;;;35.50;58.20;;;;;;4972672;28;20133;-74
2022/08/07 09:43:35;;;;;;;1999.90;999.90;;;35.80;58.40;;;;;;4993504;28;20049;-68
2022/08/07 09:46:29;;;;;;;1999.90;999.90;;;35.90;57.90;;;;;;4993597;28;20018;-73
2022/08/07 09:49:05;;;;;;;1999.90;999.90;;;35.70;58.20;;;;;;4991786;28;20023;-74
2022/08/07 09:51:56;;;;;;;1999.90;999.90;;;35.50;58.60;;;;;;4993114;28;20046;-74
2022/08/07 09:54:44;;;;;;;1999.90;999.90;;;35.80;58.30;;;;;;4993501;28;20022;-74
2022/08/07 09:57:23;;;;;;;1999.90;999.90;;;36.40;58.30;;;;;;4993117;28;20018;-68
2022/08/07 10:00:10;;;;;;;1999.90;999.90;;;36.90;58.10;;;;;;4993212;28;20033;-74
2022/08/07 10:02:35;;;;;;;1999.90;999.90;;;35.70;58.20;;;;;;4994235;28;20504;-68
2022/08/07 10:05:16;;;;;;;1999.90;999.90;;;35.50;58.40;;;;;;5012737;28;20057;-73
2022/08/07 10:08:12;;;;;;;1999.90;999.90;;;35.50;58.10;;;;;;5012631;28;20152;-68
2022/08/07 10:10:57;;;;;;;1999.90;999.90;;;36.50;58.00;;;;;;5013066;28;20026;-74
2022/08/07 10:13:47;;;;;;;1999.90;999.90;;;36.00;58.00;;;;;;5015499;28;20040;-74
2022/08/07 10:17:01;;;;;;;1999.90;999.90;;;36.60;57.90;;;;;;5015798;28;20025;-74
2022/08/07 10:19:34;;;;;;;1999.90;999.90;;;36.00;58.10;;;;;;5010627;28;20065;-74
2022/08/07 10:22:06;;;;;;;1999.90;999.90;;;36.30;57.80;;;;;;5016138;28;20045;-68
2022/08/07 10:24:38;;;;;;;1999.90;999.90;;;36.30;57.80;;;;;;5015274;28;20091;-73
2022/08/07 10:27:09;;;;;;;;;;;36.40;58.30;;;;;;5016573;28;20025;-73
2022/08/07 10:30:08;;;;;;;1999.90;999.90;;;36.40;58.00;;;;;;5009188;28;19912;-73
2022/08/07 10:33:06;;;;;;;1999.90;999.90;;;37.00;58.00;;;;;;4996915;28;20375;-74
2022/08/07 10:35:35;;;;;;;1999.90;999.90;;;36.70;57.60;;;;;;4996242;28;20030;-74
2022/08/07 10:38:28;;;;;;;1999.90;999.90;;;36.00;58.30;;;;;;5000000;28;20060;-73
2022/08/07 10:41:13;;;;;;;1999.90;999.90;;;35.80;58.10;;;;;;5016094;28;20037;-73
2022/08/07 10:43:53;;;;;;;1999.90;999.90;;;36.00;58.10;;;;;;5015403;28;20029;-74
2022/08/07 10:46:24;;;;;;;1999.90;999.90;;;36.60;57.80;;;;;;5015848;28;20026;-68
2022/08/07 10:49:14;;;;;;;1999.90;999.90;;;36.50;57.80;;;;;;5015948;28;20026;-68
2022/08/07 10:51:49;;;;;;;1999.90;999.90;;;36.50;58.30;;;;;;5015574;28;20042;-74
2022/08/07 10:54:23;;;;;;;1999.90;999.90;;;37.20;58.00;;;;;;5015979;28;20032;-68
2022/08/07 10:57:50;;;;;;;1999.90;999.90;;;36.80;58.10;;;;;;5015494;28;20026;-73
2022/08/07 11:00:17;;;;;;;1999.90;999.90;;;35.70;58.10;;;;;;4989499;28;20493;-74
2022/08/07 11:02:55;;;;;;;1999.90;999.90;;;36.30;58.50;;;;;;5014990;28;20040;-74
2022/08/07 11:05:26;;;;;;;1999.90;999.90;;;36.40;58.50;;;;;;5015516;28;20026;-74
2022/08/07 11:08:14;;;;;;;1999.90;999.90;;;36.10;58.50;;;;;;5015313;28;20109;-68
2022/08/07 11:10:46;;;;;;;1999.90;999.90;;;36.20;58.70;;;;;;5015709;28;20026;-74
2022/08/07 11:13:30;;;;;;;1999.90;999.90;;;36.70;58.50;;;;;;5015025;28;20026;-68
2022/08/07 11:16:10;;;;;;;1999.90;999.90;;;37.00;58.20;;;;;;5015353;28;20021;-73
2022/08/07 11:18:48;;;;;;;1999.90;999.90;;;36.90;58.00;;;;;;5014925;28;20045;-68
2022/08/07 11:21:40;;;;;;;1999.90;999.90;;;36.30;58.30;;;;;;5014621;28;20133;-74
2022/08/07 11:24:20;;;;;;;1999.90;999.90;;;36.40;58.30;;;;;;5015009;28;20108;-73
2022/08/07 11:27:17;;;;;;;1999.90;999.90;;;36.20;58.60;;;;;;5014951;28;20026;-68
2022/08/07 11:30:01;;;;;;;1999.90;999.90;;;36.10;58.40;;;;;;5007247;28;20010;-74
2022/08/07 11:32:38;;;;;;;1999.90;999.90;;;36.10;58.60;;;;;;4995619;28;20421;-73
2022/08/07 11:35:10;;;;;;;1999.90;999.90;;;35.60;58.70;;;;;;4995185;28;20524;-73
2022/08/07 11:37:44;;;;;;;1999.90;999.90;;;34.50;59.20;;;;;;4995813;28;20041;-73
2022/08/07 11:40:30;;;;;;;1999.90;999.90;;;34.00;59.80;;;;;;5014961;28;20026;-68
2022/08/07 11:43:15;;;;;;;1999.90;999.90;;;33.80;60.40;;;;;;5014611;28;20040;-68
2022/08/07 11:46:18;;;;;;;1999.90;999.90;;;33.90;60.20;;;;;;5014751;28;20061;-73
2022/08/07 11:49:01;;;;;;;;;;;33.90;60.70;;;;;;5015097;28;20029;-70
2022/08/07 11:51:49;;;;;;;1999.90;999.90;;;33.80;60.40;;;;;;5013205;28;19921;-72
2022/08/07 11:54:42;;;;;;;1999.90;999.90;;;33.50;61.20;;;;;;5014688;28;20576;-70
2022/08/07 11:57:32;;;;;;;1999.90;999.90;;;33.60;60.80;;;;;;5014219;28;20112;-70
2022/08/07 12:00:28;;;;;;;1999.90;999.90;;;33.20;60.80;;;;;;5014781;28;20503;-70
2022/08/07 12:03:39;;;;;;;1999.90;999.90;;;33.00;60.90;;;;;;5012710;28;20041;-75
2022/08/07 12:06:23;;;;;;;1999.90;999.90;;;33.40;61.30;;;;;;5006076;28;20437;-70
2022/08/07 12:08:59;;;;;;;1999.90;999.90;;;33.30;60.70;;;;;;5014087;28;20057;-75
2022/08/07 12:11:41;;;;;;;1999.90;999.90;;;33.30;60.90;;;;;;5012550;28;20026;-75
2022/08/07 12:14:20;;;;;;;1999.90;999.90;;;33.20;60.80;;;;;;5013875;28;20049;-76
2022/08/07 12:17:00;;;;;;;1999.90;999.90;;;33.10;61.00;;;;;;5014115;28;20069;-76
2022/08/07 12:20:03;;;;;;;1999.90;999.90;;;33.10;60.70;;;;;;5014135;28;20037;-76
2022/08/07 12:22:50;;;;;;;1999.90;999.90;;;32.60;60.50;;;;;;5014092;28;20488;-70
2022/08/07 12:28:22;;;;;;;1999.90;999.90;;;32.80;61.00;;;;;;5013979;28;20080;-75
2022/08/07 12:30:52;;;;;;;1999.90;999.90;;;33.00;61.30;;;;;;4997260;28;20092;-75
2022/08/07 12:33:21;;;;;;;1999.90;999.90;;;32.60;60.70;;;;;;4994421;28;20019;-70
2022/08/07 12:35:50;;;;;;;1999.90;999.90;;;32.80;61.50;;;;;;4993677;28;20041;-76